sensor_id;sensor_type;location;lat;lon;timestamp;temperature;humidity
15133;DHT22;7667;51.232;17.110;2023-04-15T00:02:13;10.20;99.90
15133;DHT22;7667;51.232;17.110;2023-04-15T00:04:42;10.20;99.90
15133;DHT22;7667;51.232;17.110;2023-04-15T00:07:11;10.30;99.90
15133;DHT22;7667;51.232;17.110;2023-04-15T00:09:38;10.20;99.90
15133;DHT22;7667;51.232;17.110;2023-04-15T00:12:07;10.20;99.90
15133;DHT22;7667;51.232;17.110;2023-04-15T00:14:35;10.20;99.90
15133;DHT22;7667;51.232;17.110;2023-04-15T00:17:03;10.20;99.90
15133;DHT22;7667;51.232;17.110;2023-04-15T00:19:31;10.20;99.90
15133;DHT22;7667;51.232;17.110;2023-04-15T00:21:59;10.20;99.90
15133;DHT22;7667;51.232;17.110;2023-04-15T00:24:27;10.20;99.90
15133;DHT22;7667;51.232;17.110;2023-04-15T00:26:55;10.20;99.90
15133;DHT22;7667;51.232;17.110;2023-04-15T00:29:23;10.20;99.90
15133;DHT22;7667;51.232;17.110;2023-04-15T00:31:50;10.20;99.90
15133;DHT22;7667;51.232;17.110;2023-04-15T00:34:18;10.20;99.90
15133;DHT22;7667;51.232;17.110;2023-04-15T00:36:46;10.20;99.90
15133;DHT22;7667;51.232;17.110;2023-04-15T00:39:13;10.20;99.90
15133;DHT22;7667;51.232;17.110;2023-04-15T00:41:43;10.20;99.90
15133;DHT22;7667;51.232;17.110;2023-04-15T00:44:11;10.10;99.90
15133;DHT22;7667;51.232;17.110;2023-04-15T00:46:39;10.10;99.90
15133;DHT22;7667;51.232;17.110;2023-04-15T00:49:07;10.00;99.90
15133;DHT22;7667;51.232;17.110;2023-04-15T00:51:35;10.00;99.90
15133;DHT22;7667;51.232;17.110;2023-04-15T00:54:04;9.90;99.90
15133;DHT22;7667;51.232;17.110;2023-04-15T00:56:36;9.90;99.90
15133;DHT22;7667;51.232;17.110;2023-04-15T00:59:05;9.80;99.90
15133;DHT22;7667;51.232;17.110;2023-04-15T01:01:37;9.80;99.90
15133;DHT22;7667;51.232;17.110;2023-04-15T01:04:04;9.80;99.90
15133;DHT22;7667;51.232;17.110;2023-04-15T01:06:33;9.90;99.90
15133;DHT22;7667;51.232;17.110;2023-04-15T01:09:00;9.90;99.90
15133;DHT22;7667;51.232;17.110;2023-04-15T01:11:29;9.90;99.90
15133;DHT22;7667;51.232;17.110;2023-04-15T01:13:59;9.90;99.90
15133;DHT22;7667;51.232;17.110;2023-04-15T01:16:27;10.00;99.90
15133;DHT22;7667;51.232;17.110;2023-04-15T01:18:54;10.10;99.90
15133;DHT22;7667;51.232;17.110;2023-04-15T01:21:23;10.00;99.90
15133;DHT22;7667;51.232;17.110;2023-04-15T01:23:52;10.00;99.90
15133;DHT22;7667;51.232;17.110;2023-04-15T01:26:23;10.00;99.90
15133;DHT22;7667;51.232;17.110;2023-04-15T01:28:50;10.00;99.90
15133;DHT22;7667;51.232;17.110;2023-04-15T01:31:18;10.00;99.90
15133;DHT22;7667;51.232;17.110;2023-04-15T01:33:45;10.00;99.90
15133;DHT22;7667;51.232;17.110;2023-04-15T01:36:13;10.00;99.90
15133;DHT22;7667;51.232;17.110;2023-04-15T01:38:41;10.00;99.90
15133;DHT22;7667;51.232;17.110;2023-04-15T01:41:08;10.00;99.90
15133;DHT22;7667;51.232;17.110;2023-04-15T01:43:36;10.10;99.90
15133;DHT22;7667;51.232;17.110;2023-04-15T01:46:04;10.00;99.90
15133;DHT22;7667;51.232;17.110;2023-04-15T01:48:32;10.10;99.90
15133;DHT22;7667;51.232;17.110;2023-04-15T01:51:00;10.10;99.90
15133;DHT22;7667;51.232;17.110;2023-04-15T01:53:27;10.10;99.90
15133;DHT22;7667;51.232;17.110;2023-04-15T01:55:55;10.00;99.90
15133;DHT22;7667;51.232;17.110;2023-04-15T01:58:23;10.00;99.90
15133;DHT22;7667;51.232;17.110;2023-04-15T02:00:51;10.00;99.90
15133;DHT22;7667;51.232;17.110;2023-04-15T02:03:18;10.00;99.90
15133;DHT22;7667;51.232;17.110;2023-04-15T02:05:46;10.00;99.90
15133;DHT22;7667;51.232;17.110;2023-04-15T02:08:13;10.00;99.90
15133;DHT22;7667;51.232;17.110;2023-04-15T02:10:41;10.00;99.90
15133;DHT22;7667;51.232;17.110;2023-04-15T02:13:09;10.10;99.90
15133;DHT22;7667;51.232;17.110;2023-04-15T02:15:37;10.00;99.90
15133;DHT22;7667;51.232;17.110;2023-04-15T02:18:04;10.00;99.90
15133;DHT22;7667;51.232;17.110;2023-04-15T02:20:32;10.00;99.90
15133;DHT22;7667;51.232;17.110;2023-04-15T02:23:00;10.00;99.90
15133;DHT22;7667;51.232;17.110;2023-04-15T02:25:27;9.90;99.90
15133;DHT22;7667;51.232;17.110;2023-04-15T02:27:56;9.90;99.90
15133;DHT22;7667;51.232;17.110;2023-04-15T02:30:24;9.80;99.90
15133;DHT22;7667;51.232;17.110;2023-04-15T02:32:52;9.70;99.90
15133;DHT22;7667;51.232;17.110;2023-04-15T02:35:19;9.60;99.90
15133;DHT22;7667;51.232;17.110;2023-04-15T02:37:47;9.60;99.90
15133;DHT22;7667;51.232;17.110;2023-04-15T02:40:15;9.50;99.90
15133;DHT22;7667;51.232;17.110;2023-04-15T02:42:43;9.50;99.90
15133;DHT22;7667;51.232;17.110;2023-04-15T02:45:11;9.40;99.90
15133;DHT22;7667;51.232;17.110;2023-04-15T02:47:39;9.30;99.90
15133;DHT22;7667;51.232;17.110;2023-04-15T02:50:12;9.20;99.90
15133;DHT22;7667;51.232;17.110;2023-04-15T02:52:41;9.10;99.90
15133;DHT22;7667;51.232;17.110;2023-04-15T02:55:10;9.00;99.90
15133;DHT22;7667;51.232;17.110;2023-04-15T02:57:39;8.90;99.90
15133;DHT22;7667;51.232;17.110;2023-04-15T03:00:07;8.80;99.90
15133;DHT22;7667;51.232;17.110;2023-04-15T03:02:38;8.70;99.90
15133;DHT22;7667;51.232;17.110;2023-04-15T03:05:10;8.70;99.90
15133;DHT22;7667;51.232;17.110;2023-04-15T03:07:39;8.60;99.90
15133;DHT22;7667;51.232;17.110;2023-04-15T03:10:07;8.60;99.90
15133;DHT22;7667;51.232;17.110;2023-04-15T03:12:35;8.50;99.90
15133;DHT22;7667;51.232;17.110;2023-04-15T03:15:02;8.50;99.90
15133;DHT22;7667;51.232;17.110;2023-04-15T03:17:30;8.40;99.90
15133;DHT22;7667;51.232;17.110;2023-04-15T03:19:58;8.40;99.90
15133;DHT22;7667;51.232;17.110;2023-04-15T03:22:25;8.40;99.90
15133;DHT22;7667;51.232;17.110;2023-04-15T03:24:53;8.40;99.90
15133;DHT22;7667;51.232;17.110;2023-04-15T03:27:20;8.30;99.90
15133;DHT22;7667;51.232;17.110;2023-04-15T03:29:48;8.30;99.90
15133;DHT22;7667;51.232;17.110;2023-04-15T03:32:15;8.20;99.90
15133;DHT22;7667;51.232;17.110;2023-04-15T03:34:43;8.30;99.90
15133;DHT22;7667;51.232;17.110;2023-04-15T03:37:10;8.40;99.90
15133;DHT22;7667;51.232;17.110;2023-04-15T03:39:38;8.40;99.90
15133;DHT22;7667;51.232;17.110;2023-04-15T03:42:05;8.40;99.90
15133;DHT22;7667;51.232;17.110;2023-04-15T03:44:33;8.40;99.90
15133;DHT22;7667;51.232;17.110;2023-04-15T03:47:00;8.40;99.90
15133;DHT22;7667;51.232;17.110;2023-04-15T03:49:28;8.40;99.90
15133;DHT22;7667;51.232;17.110;2023-04-15T03:51:55;8.40;99.90
15133;DHT22;7667;51.232;17.110;2023-04-15T03:54:23;8.40;99.90
15133;DHT22;7667;51.232;17.110;2023-04-15T03:56:50;8.50;99.90
15133;DHT22;7667;51.232;17.110;2023-04-15T03:59:19;8.40;99.90
15133;DHT22;7667;51.232;17.110;2023-04-15T04:01:46;8.40;99.90
15133;DHT22;7667;51.232;17.110;2023-04-15T04:04:14;8.40;99.90
15133;DHT22;7667;51.232;17.110;2023-04-15T04:06:41;8.40;99.90
15133;DHT22;7667;51.232;17.110;2023-04-15T04:09:09;8.50;99.90
15133;DHT22;7667;51.232;17.110;2023-04-15T04:11:36;8.50;99.90
15133;DHT22;7667;51.232;17.110;2023-04-15T04:14:04;8.50;99.90
15133;DHT22;7667;51.232;17.110;2023-04-15T04:16:32;8.50;99.90
15133;DHT22;7667;51.232;17.110;2023-04-15T04:18:59;8.50;99.90
15133;DHT22;7667;51.232;17.110;2023-04-15T04:21:28;8.40;99.90
15133;DHT22;7667;51.232;17.110;2023-04-15T04:23:56;8.40;99.90
15133;DHT22;7667;51.232;17.110;2023-04-15T04:26:23;8.30;99.90
15133;DHT22;7667;51.232;17.110;2023-04-15T04:28:51;8.30;99.90
15133;DHT22;7667;51.232;17.110;2023-04-15T04:31:18;8.20;99.90
15133;DHT22;7667;51.232;17.110;2023-04-15T04:33:46;8.20;99.90
15133;DHT22;7667;51.232;17.110;2023-04-15T04:36:13;8.20;99.90
15133;DHT22;7667;51.232;17.110;2023-04-15T04:38:41;8.20;99.90
15133;DHT22;7667;51.232;17.110;2023-04-15T04:41:08;8.10;99.90
15133;DHT22;7667;51.232;17.110;2023-04-15T04:43:36;8.00;99.90
15133;DHT22;7667;51.232;17.110;2023-04-15T04:46:03;8.00;99.90
15133;DHT22;7667;51.232;17.110;2023-04-15T04:48:31;7.90;99.90
15133;DHT22;7667;51.232;17.110;2023-04-15T04:50:58;7.90;99.90
15133;DHT22;7667;51.232;17.110;2023-04-15T04:53:26;7.80;99.90
15133;DHT22;7667;51.232;17.110;2023-04-15T04:55:54;7.80;99.90
15133;DHT22;7667;51.232;17.110;2023-04-15T04:58:21;7.70;99.90
15133;DHT22;7667;51.232;17.110;2023-04-15T05:00:49;7.70;99.90
15133;DHT22;7667;51.232;17.110;2023-04-15T05:03:17;7.70;99.90
15133;DHT22;7667;51.232;17.110;2023-04-15T05:05:45;7.70;99.90
15133;DHT22;7667;51.232;17.110;2023-04-15T05:08:12;7.70;99.90
15133;DHT22;7667;51.232;17.110;2023-04-15T05:10:40;7.70;99.90
15133;DHT22;7667;51.232;17.110;2023-04-15T05:13:08;7.70;99.90
15133;DHT22;7667;51.232;17.110;2023-04-15T05:15:35;7.70;99.90
15133;DHT22;7667;51.232;17.110;2023-04-15T05:18:06;7.70;99.90
15133;DHT22;7667;51.232;17.110;2023-04-15T05:20:33;7.70;99.90
15133;DHT22;7667;51.232;17.110;2023-04-15T05:23:01;7.80;99.90
15133;DHT22;7667;51.232;17.110;2023-04-15T05:25:28;7.80;99.90
15133;DHT22;7667;51.232;17.110;2023-04-15T05:27:56;7.80;99.90
15133;DHT22;7667;51.232;17.110;2023-04-15T05:30:23;7.80;99.90
15133;DHT22;7667;51.232;17.110;2023-04-15T05:32:51;7.90;99.90
15133;DHT22;7667;51.232;17.110;2023-04-15T05:35:19;7.90;99.90
15133;DHT22;7667;51.232;17.110;2023-04-15T05:37:46;8.00;99.90
15133;DHT22;7667;51.232;17.110;2023-04-15T05:40:14;7.90;99.90
15133;DHT22;7667;51.232;17.110;2023-04-15T05:42:42;8.00;99.90
15133;DHT22;7667;51.232;17.110;2023-04-15T05:45:10;8.00;99.90
15133;DHT22;7667;51.232;17.110;2023-04-15T05:47:38;8.10;99.90
15133;DHT22;7667;51.232;17.110;2023-04-15T05:50:06;8.10;99.90
15133;DHT22;7667;51.232;17.110;2023-04-15T05:52:34;8.10;99.90
15133;DHT22;7667;51.232;17.110;2023-04-15T05:55:02;8.10;99.90
15133;DHT22;7667;51.232;17.110;2023-04-15T05:57:29;8.30;99.90
15133;DHT22;7667;51.232;17.110;2023-04-15T05:59:57;8.40;99.90
15133;DHT22;7667;51.232;17.110;2023-04-15T06:02:25;8.40;99.90
15133;DHT22;7667;51.232;17.110;2023-04-15T06:04:52;8.50;99.90
15133;DHT22;7667;51.232;17.110;2023-04-15T06:07:20;8.60;99.90
15133;DHT22;7667;51.232;17.110;2023-04-15T06:09:47;8.60;99.90
15133;DHT22;7667;51.232;17.110;2023-04-15T06:12:15;8.70;99.90
15133;DHT22;7667;51.232;17.110;2023-04-15T06:14:43;8.90;99.90
15133;DHT22;7667;51.232;17.110;2023-04-15T06:17:10;9.00;99.90
15133;DHT22;7667;51.232;17.110;2023-04-15T06:19:40;9.20;99.90
15133;DHT22;7667;51.232;17.110;2023-04-15T06:22:08;9.10;99.90
15133;DHT22;7667;51.232;17.110;2023-04-15T06:24:35;8.90;99.90
15133;DHT22;7667;51.232;17.110;2023-04-15T06:27:03;8.90;99.90
15133;DHT22;7667;51.232;17.110;2023-04-15T06:29:30;8.90;99.90
15133;DHT22;7667;51.232;17.110;2023-04-15T06:31:58;8.80;99.90
15133;DHT22;7667;51.232;17.110;2023-04-15T06:34:26;9.00;99.90
15133;DHT22;7667;51.232;17.110;2023-04-15T06:36:53;9.10;99.90
15133;DHT22;7667;51.232;17.110;2023-04-15T06:39:21;9.10;99.90
15133;DHT22;7667;51.232;17.110;2023-04-15T06:41:48;9.20;99.90
15133;DHT22;7667;51.232;17.110;2023-04-15T06:44:16;9.20;99.90
15133;DHT22;7667;51.232;17.110;2023-04-15T06:46:44;8.90;99.90
15133;DHT22;7667;51.232;17.110;2023-04-15T06:49:12;8.80;99.90
15133;DHT22;7667;51.232;17.110;2023-04-15T06:51:39;8.80;99.90
15133;DHT22;7667;51.232;17.110;2023-04-15T06:54:08;8.80;99.90
15133;DHT22;7667;51.232;17.110;2023-04-15T06:56:35;8.90;99.90
15133;DHT22;7667;51.232;17.110;2023-04-15T06:59:03;9.00;99.90
15133;DHT22;7667;51.232;17.110;2023-04-15T07:01:30;9.10;99.90
15133;DHT22;7667;51.232;17.110;2023-04-15T07:03:58;9.00;99.90
15133;DHT22;7667;51.232;17.110;2023-04-15T07:06:26;9.10;99.90
15133;DHT22;7667;51.232;17.110;2023-04-15T07:08:53;9.00;99.90
15133;DHT22;7667;51.232;17.110;2023-04-15T07:11:21;8.80;99.90
15133;DHT22;7667;51.232;17.110;2023-04-15T07:13:49;8.60;99.90
15133;DHT22;7667;51.232;17.110;2023-04-15T07:16:16;8.60;99.90
15133;DHT22;7667;51.232;17.110;2023-04-15T07:18:44;8.60;99.90
15133;DHT22;7667;51.232;17.110;2023-04-15T07:21:11;8.70;99.90
15133;DHT22;7667;51.232;17.110;2023-04-15T07:23:39;8.70;99.90
15133;DHT22;7667;51.232;17.110;2023-04-15T07:26:08;8.50;99.90
15133;DHT22;7667;51.232;17.110;2023-04-15T07:28:35;8.70;99.90
15133;DHT22;7667;51.232;17.110;2023-04-15T07:31:03;8.80;99.90
15133;DHT22;7667;51.232;17.110;2023-04-15T07:33:31;8.60;99.90
15133;DHT22;7667;51.232;17.110;2023-04-15T07:35:58;8.50;99.90
15133;DHT22;7667;51.232;17.110;2023-04-15T07:38:26;8.40;99.90
15133;DHT22;7667;51.232;17.110;2023-04-15T07:40:53;8.80;99.90
15133;DHT22;7667;51.232;17.110;2023-04-15T07:43:21;8.70;99.90
15133;DHT22;7667;51.232;17.110;2023-04-15T07:45:48;8.80;99.90
15133;DHT22;7667;51.232;17.110;2023-04-15T07:48:16;8.80;99.90
15133;DHT22;7667;51.232;17.110;2023-04-15T07:50:43;9.00;99.90
15133;DHT22;7667;51.232;17.110;2023-04-15T07:53:11;9.40;99.90
15133;DHT22;7667;51.232;17.110;2023-04-15T07:55:39;9.70;99.90
15133;DHT22;7667;51.232;17.110;2023-04-15T07:58:07;10.00;99.90
15133;DHT22;7667;51.232;17.110;2023-04-15T08:00:34;10.20;99.90
15133;DHT22;7667;51.232;17.110;2023-04-15T08:03:02;10.20;99.90
15133;DHT22;7667;51.232;17.110;2023-04-15T08:05:30;10.40;99.90
15133;DHT22;7667;51.232;17.110;2023-04-15T08:07:57;10.20;99.90
15133;DHT22;7667;51.232;17.110;2023-04-15T08:10:25;10.20;99.90
15133;DHT22;7667;51.232;17.110;2023-04-15T08:12:53;10.50;99.90
15133;DHT22;7667;51.232;17.110;2023-04-15T08:15:21;10.60;99.90
15133;DHT22;7667;51.232;17.110;2023-04-15T08:17:48;10.60;99.90
15133;DHT22;7667;51.232;17.110;2023-04-15T08:20:16;10.80;99.90
15133;DHT22;7667;51.232;17.110;2023-04-15T08:22:44;10.90;99.90
15133;DHT22;7667;51.232;17.110;2023-04-15T08:25:13;10.80;99.90
15133;DHT22;7667;51.232;17.110;2023-04-15T08:27:41;10.80;99.90
15133;DHT22;7667;51.232;17.110;2023-04-15T08:30:09;10.60;99.90
15133;DHT22;7667;51.232;17.110;2023-04-15T08:32:36;10.70;99.90
15133;DHT22;7667;51.232;17.110;2023-04-15T08:35:04;10.70;99.90
15133;DHT22;7667;51.232;17.110;2023-04-15T08:37:32;10.60;99.90
15133;DHT22;7667;51.232;17.110;2023-04-15T08:39:59;10.90;99.90
15133;DHT22;7667;51.232;17.110;2023-04-15T08:42:30;10.90;99.90
15133;DHT22;7667;51.232;17.110;2023-04-15T08:44:59;11.10;99.90
15133;DHT22;7667;51.232;17.110;2023-04-15T08:47:29;11.50;99.90
15133;DHT22;7667;51.232;17.110;2023-04-15T08:50:02;11.50;99.90
15133;DHT22;7667;51.232;17.110;2023-04-15T08:52:30;11.70;99.90
15133;DHT22;7667;51.232;17.110;2023-04-15T08:54:59;11.80;99.90
15133;DHT22;7667;51.232;17.110;2023-04-15T08:57:28;11.70;99.90
15133;DHT22;7667;51.232;17.110;2023-04-15T08:59:56;11.70;99.90
15133;DHT22;7667;51.232;17.110;2023-04-15T09:02:24;12.30;99.90
15133;DHT22;7667;51.232;17.110;2023-04-15T09:04:53;12.70;99.90
15133;DHT22;7667;51.232;17.110;2023-04-15T09:07:21;12.60;99.90
15133;DHT22;7667;51.232;17.110;2023-04-15T09:09:48;12.40;99.90
15133;DHT22;7667;51.232;17.110;2023-04-15T09:12:17;12.30;99.90
15133;DHT22;7667;51.232;17.110;2023-04-15T09:14:45;12.40;99.90
15133;DHT22;7667;51.232;17.110;2023-04-15T09:17:18;12.50;99.90
15133;DHT22;7667;51.232;17.110;2023-04-15T09:19:47;12.90;99.90
15133;DHT22;7667;51.232;17.110;2023-04-15T09:22:15;12.90;99.90
15133;DHT22;7667;51.232;17.110;2023-04-15T09:24:42;13.00;99.90
15133;DHT22;7667;51.232;17.110;2023-04-15T09:27:15;13.30;99.90
15133;DHT22;7667;51.232;17.110;2023-04-15T09:29:43;13.30;99.90
15133;DHT22;7667;51.232;17.110;2023-04-15T09:32:13;13.30;99.90
15133;DHT22;7667;51.232;17.110;2023-04-15T09:34:41;13.50;99.90
15133;DHT22;7667;51.232;17.110;2023-04-15T09:37:09;13.40;99.90
15133;DHT22;7667;51.232;17.110;2023-04-15T09:42:15;13.40;99.90
15133;DHT22;7667;51.232;17.110;2023-04-15T09:44:43;13.50;99.90
15133;DHT22;7667;51.232;17.110;2023-04-15T09:47:29;13.80;99.90
15133;DHT22;7667;51.232;17.110;2023-04-15T09:49:59;13.70;99.90
15133;DHT22;7667;51.232;17.110;2023-04-15T09:52:28;13.50;99.90
15133;DHT22;7667;51.232;17.110;2023-04-15T09:54:59;13.50;99.90
15133;DHT22;7667;51.232;17.110;2023-04-15T09:57:37;13.70;99.90
15133;DHT22;7667;51.232;17.110;2023-04-15T10:00:06;13.80;99.90
15133;DHT22;7667;51.232;17.110;2023-04-15T10:02:39;14.00;99.90
15133;DHT22;7667;51.232;17.110;2023-04-15T10:05:13;13.90;99.90
15133;DHT22;7667;51.232;17.110;2023-04-15T10:07:43;13.90;99.90
15133;DHT22;7667;51.232;17.110;2023-04-15T10:10:12;14.00;99.90
15133;DHT22;7667;51.232;17.110;2023-04-15T10:12:41;13.30;99.90
15133;DHT22;7667;51.232;17.110;2023-04-15T10:15:14;13.40;99.90
15133;DHT22;7667;51.232;17.110;2023-04-15T10:17:44;14.00;99.90
15133;DHT22;7667;51.232;17.110;2023-04-15T10:20:12;13.90;99.90
15133;DHT22;7667;51.232;17.110;2023-04-15T10:22:41;13.60;99.90
15133;DHT22;7667;51.232;17.110;2023-04-15T10:25:09;13.70;99.90
15133;DHT22;7667;51.232;17.110;2023-04-15T10:27:39;13.00;99.90
15133;DHT22;7667;51.232;17.110;2023-04-15T10:30:08;13.60;99.90
15133;DHT22;7667;51.232;17.110;2023-04-15T10:32:36;13.80;99.90
15133;DHT22;7667;51.232;17.110;2023-04-15T10:35:05;13.50;99.90
15133;DHT22;7667;51.232;17.110;2023-04-15T10:37:37;13.90;99.90
15133;DHT22;7667;51.232;17.110;2023-04-15T10:40:30;13.70;99.90
15133;DHT22;7667;51.232;17.110;2023-04-15T10:43:00;13.90;99.90
15133;DHT22;7667;51.232;17.110;2023-04-15T10:45:34;14.60;99.90
15133;DHT22;7667;51.232;17.110;2023-04-15T10:48:06;14.40;99.90
15133;DHT22;7667;51.232;17.110;2023-04-15T10:50:36;14.40;99.90
15133;DHT22;7667;51.232;17.110;2023-04-15T10:53:03;14.40;99.90
15133;DHT22;7667;51.232;17.110;2023-04-15T10:55:33;15.00;99.90
15133;DHT22;7667;51.232;17.110;2023-04-15T10:58:01;15.60;99.90
15133;DHT22;7667;51.232;17.110;2023-04-15T11:00:30;15.50;99.90
15133;DHT22;7667;51.232;17.110;2023-04-15T11:08:09;14.10;99.90
15133;DHT22;7667;51.232;17.110;2023-04-15T11:13:15;14.80;99.90
15133;DHT22;7667;51.232;17.110;2023-04-15T11:15:48;14.70;99.90
15133;DHT22;7667;51.232;17.110;2023-04-15T11:18:22;14.50;99.90
15133;DHT22;7667;51.232;17.110;2023-04-15T11:21:00;14.30;99.90
15133;DHT22;7667;51.232;17.110;2023-04-15T11:26:06;14.60;99.90
15133;DHT22;7667;51.232;17.110;2023-04-15T11:28:42;14.50;99.90
15133;DHT22;7667;51.232;17.110;2023-04-15T11:31:13;14.60;99.90
15133;DHT22;7667;51.232;17.110;2023-04-15T11:33:52;14.90;99.90
15133;DHT22;7667;51.232;17.110;2023-04-15T11:36:25;15.10;99.90
15133;DHT22;7667;51.232;17.110;2023-04-15T11:38:54;14.60;99.90
15133;DHT22;7667;51.232;17.110;2023-04-15T11:41:23;14.70;99.90
15133;DHT22;7667;51.232;17.110;2023-04-15T11:43:51;14.20;99.90
15133;DHT22;7667;51.232;17.110;2023-04-15T11:46:20;14.60;99.90
15133;DHT22;7667;51.232;17.110;2023-04-15T11:48:50;15.00;99.90
15133;DHT22;7667;51.232;17.110;2023-04-15T11:51:17;15.00;99.90
15133;DHT22;7667;51.232;17.110;2023-04-15T11:53:49;15.10;99.90
15133;DHT22;7667;51.232;17.110;2023-04-15T11:56:19;15.00;99.90
15133;DHT22;7667;51.232;17.110;2023-04-15T11:58:51;15.00;99.90
15133;DHT22;7667;51.232;17.110;2023-04-15T12:01:20;15.00;99.90
15133;DHT22;7667;51.232;17.110;2023-04-15T12:03:48;14.90;99.90
15133;DHT22;7667;51.232;17.110;2023-04-15T12:06:21;15.20;99.90
15133;DHT22;7667;51.232;17.110;2023-04-15T12:16:54;14.90;99.90
15133;DHT22;7667;51.232;17.110;2023-04-15T12:19:34;14.90;99.90
15133;DHT22;7667;51.232;17.110;2023-04-15T12:22:13;14.80;99.90
15133;DHT22;7667;51.232;17.110;2023-04-15T12:24:43;15.10;99.90
15133;DHT22;7667;51.232;17.110;2023-04-15T12:27:15;15.40;99.90
15133;DHT22;7667;51.232;17.110;2023-04-15T12:29:43;15.10;99.90
15133;DHT22;7667;51.232;17.110;2023-04-15T12:32:13;14.60;99.90
15133;DHT22;7667;51.232;17.110;2023-04-15T12:34:45;14.50;99.90
15133;DHT22;7667;51.232;17.110;2023-04-15T12:37:18;14.00;99.90
15133;DHT22;7667;51.232;17.110;2023-04-15T12:39:48;14.30;99.90
15133;DHT22;7667;51.232;17.110;2023-04-15T12:42:16;14.80;99.90
15133;DHT22;7667;51.232;17.110;2023-04-15T12:44:45;15.00;99.30
15133;DHT22;7667;51.232;17.110;2023-04-15T12:47:13;14.70;99.80
15133;DHT22;7667;51.232;17.110;2023-04-15T12:49:41;14.50;99.90
15133;DHT22;7667;51.232;17.110;2023-04-15T12:52:08;15.00;99.90
15133;DHT22;7667;51.232;17.110;2023-04-15T12:54:36;15.50;98.60
15133;DHT22;7667;51.232;17.110;2023-04-15T12:57:05;15.10;99.90
15133;DHT22;7667;51.232;17.110;2023-04-15T12:59:34;14.50;99.90
15133;DHT22;7667;51.232;17.110;2023-04-15T13:02:03;14.00;99.90
15133;DHT22;7667;51.232;17.110;2023-04-15T13:04:31;13.60;99.90
15133;DHT22;7667;51.232;17.110;2023-04-15T13:06:59;14.00;99.90
15133;DHT22;7667;51.232;17.110;2023-04-15T13:09:27;14.70;99.70
15133;DHT22;7667;51.232;17.110;2023-04-15T13:11:55;15.00;98.00
15133;DHT22;7667;51.232;17.110;2023-04-15T13:14:23;15.40;98.00
15133;DHT22;7667;51.232;17.110;2023-04-15T13:16:51;15.70;95.90
15133;DHT22;7667;51.232;17.110;2023-04-15T13:19:19;15.90;96.20
15133;DHT22;7667;51.232;17.110;2023-04-15T13:21:47;15.60;95.30
15133;DHT22;7667;51.232;17.110;2023-04-15T13:24:14;15.60;94.20
15133;DHT22;7667;51.232;17.110;2023-04-15T13:26:42;15.80;94.00
15133;DHT22;7667;51.232;17.110;2023-04-15T13:29:09;16.00;97.40
15133;DHT22;7667;51.232;17.110;2023-04-15T13:31:38;16.50;95.90
15133;DHT22;7667;51.232;17.110;2023-04-15T13:34:05;16.60;93.50
15133;DHT22;7667;51.232;17.110;2023-04-15T13:36:33;16.60;91.30
15133;DHT22;7667;51.232;17.110;2023-04-15T13:39:01;16.50;93.40
15133;DHT22;7667;51.232;17.110;2023-04-15T13:41:29;17.10;94.20
15133;DHT22;7667;51.232;17.110;2023-04-15T13:43:57;18.20;90.10
15133;DHT22;7667;51.232;17.110;2023-04-15T13:46:24;18.60;88.40
15133;DHT22;7667;51.232;17.110;2023-04-15T13:48:52;18.80;84.20
15133;DHT22;7667;51.232;17.110;2023-04-15T13:51:20;17.30;86.20
15133;DHT22;7667;51.232;17.110;2023-04-15T13:53:47;16.70;89.60
15133;DHT22;7667;51.232;17.110;2023-04-15T13:56:15;17.50;90.20
15133;DHT22;7667;51.232;17.110;2023-04-15T13:58:42;16.90;86.90
15133;DHT22;7667;51.232;17.110;2023-04-15T14:01:10;16.10;89.60
15133;DHT22;7667;51.232;17.110;2023-04-15T14:03:37;16.10;91.60
15133;DHT22;7667;51.232;17.110;2023-04-15T14:06:05;17.00;90.00
15133;DHT22;7667;51.232;17.110;2023-04-15T14:08:33;16.70;90.00
15133;DHT22;7667;51.232;17.110;2023-04-15T14:11:00;15.90;90.40
15133;DHT22;7667;51.232;17.110;2023-04-15T14:13:28;15.90;92.60
15133;DHT22;7667;51.232;17.110;2023-04-15T14:15:56;15.50;91.60
15133;DHT22;7667;51.232;17.110;2023-04-15T14:18:23;15.60;91.00
15133;DHT22;7667;51.232;17.110;2023-04-15T14:20:51;15.60;92.20
15133;DHT22;7667;51.232;17.110;2023-04-15T14:23:19;16.20;90.60
15133;DHT22;7667;51.232;17.110;2023-04-15T14:25:46;16.80;86.80
15133;DHT22;7667;51.232;17.110;2023-04-15T14:28:14;16.20;89.30
15133;DHT22;7667;51.232;17.110;2023-04-15T14:30:43;16.10;90.10
15133;DHT22;7667;51.232;17.110;2023-04-15T14:33:10;16.10;90.20
15133;DHT22;7667;51.232;17.110;2023-04-15T14:35:38;16.20;88.30
15133;DHT22;7667;51.232;17.110;2023-04-15T14:38:06;16.40;88.40
15133;DHT22;7667;51.232;17.110;2023-04-15T14:40:37;16.70;88.30
15133;DHT22;7667;51.232;17.110;2023-04-15T14:43:05;16.80;88.60
15133;DHT22;7667;51.232;17.110;2023-04-15T14:45:32;16.80;87.20
15133;DHT22;7667;51.232;17.110;2023-04-15T14:48:00;17.60;85.30
15133;DHT22;7667;51.232;17.110;2023-04-15T14:50:28;18.30;83.20
15133;DHT22;7667;51.232;17.110;2023-04-15T14:52:56;18.60;79.10
15133;DHT22;7667;51.232;17.110;2023-04-15T14:55:24;19.20;77.50
15133;DHT22;7667;51.232;17.110;2023-04-15T14:57:52;19.20;77.00
15133;DHT22;7667;51.232;17.110;2023-04-15T15:00:19;19.20;76.00
15133;DHT22;7667;51.232;17.110;2023-04-15T15:02:47;19.10;73.10
15133;DHT22;7667;51.232;17.110;2023-04-15T15:05:14;19.60;73.70
15133;DHT22;7667;51.232;17.110;2023-04-15T15:07:42;19.30;71.90
15133;DHT22;7667;51.232;17.110;2023-04-15T15:10:10;19.10;73.60
15133;DHT22;7667;51.232;17.110;2023-04-15T15:12:37;19.40;70.70
15133;DHT22;7667;51.232;17.110;2023-04-15T15:15:05;19.60;70.40
15133;DHT22;7667;51.232;17.110;2023-04-15T15:17:53;20.00;68.10
15133;DHT22;7667;51.232;17.110;2023-04-15T15:20:21;18.80;71.60
15133;DHT22;7667;51.232;17.110;2023-04-15T15:22:49;17.90;75.40
15133;DHT22;7667;51.232;17.110;2023-04-15T15:25:17;17.40;77.50
15133;DHT22;7667;51.232;17.110;2023-04-15T15:27:44;17.70;77.20
15133;DHT22;7667;51.232;17.110;2023-04-15T15:30:12;18.10;79.20
15133;DHT22;7667;51.232;17.110;2023-04-15T15:32:41;18.80;77.40
15133;DHT22;7667;51.232;17.110;2023-04-15T15:35:09;19.30;75.10
15133;DHT22;7667;51.232;17.110;2023-04-15T15:37:37;18.50;73.60
15133;DHT22;7667;51.232;17.110;2023-04-15T15:40:06;17.50;74.90
15133;DHT22;7667;51.232;17.110;2023-04-15T15:42:34;16.50;78.20
15133;DHT22;7667;51.232;17.110;2023-04-15T15:45:03;15.90;80.70
15133;DHT22;7667;51.232;17.110;2023-04-15T15:47:30;15.60;85.50
15133;DHT22;7667;51.232;17.110;2023-04-15T15:49:59;15.40;87.70
15133;DHT22;7667;51.232;17.110;2023-04-15T15:52:30;15.30;87.60
15133;DHT22;7667;51.232;17.110;2023-04-15T15:54:57;15.30;89.50
15133;DHT22;7667;51.232;17.110;2023-04-15T15:57:25;15.10;91.50
15133;DHT22;7667;51.232;17.110;2023-04-15T15:59:52;14.90;91.50
15133;DHT22;7667;51.232;17.110;2023-04-15T16:02:36;14.80;92.10
15133;DHT22;7667;51.232;17.110;2023-04-15T16:05:24;14.40;91.80
15133;DHT22;7667;51.232;17.110;2023-04-15T16:07:51;14.30;93.30